createdAt,value
2023-05-02T00:00:47.050Z,99542.03
2023-05-02T00:05:48.823Z,99543.06
2023-05-02T00:10:50.541Z,99550.66
2023-05-02T00:15:52.152Z,99546.31
2023-05-02T00:20:53.782Z,99549.00
2023-05-02T00:25:55.503Z,99545.47
2023-05-02T00:30:57.157Z,99556.91
2023-05-02T00:35:58.810Z,99551.34
2023-05-02T00:41:00.539Z,99554.09
2023-05-02T00:46:02.517Z,99560.94
2023-05-02T00:51:08.708Z,99565.81
2023-05-02T00:56:10.438Z,99562.25
2023-05-02T01:01:30.497Z,99560.56
2023-05-02T01:07:13.796Z,99553.72
2023-05-02T01:12:29.106Z,99556.91
2023-05-02T01:17:33.056Z,99551.84
2023-05-02T01:22:38.032Z,99544.25
2023-05-02T01:28:14.279Z,99546.31
2023-05-02T01:33:17.744Z,99548.56
2023-05-02T01:38:21.084Z,99559.59
2023-05-02T01:43:26.333Z,99546.09
2023-05-02T01:48:28.898Z,99555.97
2023-05-02T01:53:34.262Z,99549.72
2023-05-02T01:58:38.497Z,99544.06
2023-05-02T02:03:40.412Z,99550.50
2023-05-02T02:08:42.371Z,99556.66
2023-05-02T02:13:51.048Z,99546.94
2023-05-02T02:18:56.518Z,99557.56
2023-05-02T02:24:03.120Z,99569.06
2023-05-02T02:29:05.120Z,99562.22
2023-05-02T02:34:07.464Z,99574.00
2023-05-02T02:39:46.600Z,99585.31
2023-05-02T02:44:56.951Z,99592.66
2023-05-02T02:50:22.675Z,99598.34
2023-05-02T02:55:36.758Z,99616.78
2023-05-02T03:00:39.521Z,99615.03
2023-05-02T03:05:43.789Z,99616.25
2023-05-02T03:10:45.663Z,99622.75
2023-05-02T03:15:58.806Z,99629.06
2023-05-02T03:21:04.059Z,99639.41
2023-05-02T03:26:06.263Z,99637.59
2023-05-02T03:31:09.433Z,99650.53
2023-05-02T03:36:14.938Z,99655.84
2023-05-02T03:41:17.477Z,99661.19
2023-05-02T03:46:19.750Z,99656.09
2023-05-02T03:51:21.527Z,99662.81
2023-05-02T03:56:26.727Z,99665.44
2023-05-02T04:02:03.581Z,99673.88
2023-05-02T04:07:18.397Z,99683.56
2023-05-02T04:12:23.989Z,99694.25
2023-05-02T04:17:27.493Z,99696.59
2023-05-02T04:22:29.220Z,99706.38
2023-05-02T04:27:34.986Z,99712.78
2023-05-02T04:32:38.058Z,99721.16
2023-05-02T04:37:40.659Z,99737.50
2023-05-02T04:42:42.748Z,99742.25
2023-05-02T04:47:49.433Z,99752.41
2023-05-02T04:52:51.230Z,99769.78
2023-05-02T04:57:53.022Z,99779.56
2023-05-02T05:02:55.402Z,99784.31
2023-05-02T05:07:57.176Z,99790.25
2023-05-02T05:13:00.676Z,99795.19
2023-05-02T05:18:03.175Z,99809.06
2023-05-02T05:23:04.936Z,99816.84
2023-05-02T05:28:06.677Z,99828.03
2023-05-02T05:33:11.015Z,99831.84
2023-05-02T05:38:13.109Z,99824.59
2023-05-02T05:43:17.723Z,99836.22
2023-05-02T05:48:20.122Z,99846.88
2023-05-02T05:53:21.973Z,99846.88
2023-05-02T05:58:24.894Z,99864.91
2023-05-02T06:03:30.120Z,99869.41
2023-05-02T06:08:32.080Z,99884.50
2023-05-02T06:13:33.822Z,99886.81
2023-05-02T06:18:35.846Z,99893.41
2023-05-02T06:23:40.234Z,99901.59
2023-05-02T06:28:42.050Z,99915.66
2023-05-02T06:33:43.759Z,99932.22
2023-05-02T06:38:45.384Z,99935.16
2023-05-02T06:43:47.014Z,99945.66
2023-05-02T06:48:48.866Z,99954.34
2023-05-02T06:53:51.054Z,99959.47
2023-05-02T06:58:52.717Z,99960.72
2023-05-02T07:03:54.560Z,99968.25
2023-05-02T07:08:56.214Z,99983.91
2023-05-02T07:13:57.962Z,99990.13
2023-05-02T07:19:00.223Z,99988.44
2023-05-02T07:24:01.890Z,100000.72
2023-05-02T07:29:03.552Z,100005.81
2023-05-02T07:34:05.191Z,100011.56
2023-05-02T07:39:06.892Z,100027.28
2023-05-02T07:44:08.938Z,100030.22
2023-05-02T07:49:10.735Z,100046.91
2023-05-02T07:54:22.077Z,100039.63
2023-05-02T07:59:23.702Z,100049.91
2023-05-02T08:04:26.116Z,100068.25
2023-05-02T08:09:27.833Z,100080.59
2023-05-02T08:14:29.518Z,100078.72
2023-05-02T08:19:32.015Z,100082.78
2023-05-02T08:24:36.865Z,100083.94
2023-05-02T08:29:38.556Z,100087.75
2023-05-02T08:34:40.487Z,100096.97
2023-05-02T08:39:42.259Z,100095.38
2023-05-02T08:44:43.876Z,100111.72
2023-05-02T08:49:46.573Z,100119.25
2023-05-02T08:54:51.588Z,100112.81
2023-05-02T08:59:53.282Z,100120.53
2023-05-02T09:04:59.881Z,100136.13
2023-05-02T09:10:02.117Z,100138.59
2023-05-02T09:15:29.858Z,100153.25
2023-05-02T09:20:40.682Z,100142.50
2023-05-02T09:25:42.463Z,100154.28
2023-05-02T09:30:44.159Z,100160.78
2023-05-02T09:35:55.882Z,100159.28
2023-05-02T09:40:57.650Z,100166.34
2023-05-02T09:46:01.897Z,100155.28
2023-05-02T09:51:04.867Z,100154.72
2023-05-02T09:56:06.967Z,100167.59
2023-05-02T10:01:14.928Z,100165.78
2023-05-02T10:06:19.229Z,100164.63
2023-05-02T10:11:21.878Z,100180.72
2023-05-02T10:16:29.122Z,100181.84
2023-05-02T10:21:32.532Z,100182.97
2023-05-02T10:26:35.431Z,100183.53
2023-05-02T10:31:39.802Z,100177.88
2023-05-02T10:36:41.556Z,100184.78
2023-05-02T10:41:44.323Z,100195.88
2023-05-02T10:46:46.060Z,100204.16
2023-05-02T10:51:47.811Z,100207.28
2023-05-02T10:57:05.600Z,100200.56
2023-05-02T11:02:27.979Z,100196.63
2023-05-02T11:07:34.521Z,100202.03
2023-05-02T11:12:49.179Z,100201.19
2023-05-02T11:18:03.963Z,100197.75
2023-05-02T11:23:21.784Z,100193.19
2023-05-02T11:28:40.329Z,100197.84
2023-05-02T11:33:41.939Z,100202.28
2023-05-02T11:38:44.492Z,100205.06
2023-05-02T11:43:47.141Z,100207.09
2023-05-02T11:48:48.839Z,100206.69
2023-05-02T11:53:50.678Z,100213.31
2023-05-02T11:59:03.501Z,100219.38
2023-05-02T12:04:07.606Z,100210.47
2023-05-02T12:09:16.203Z,100211.84
2023-05-02T12:14:17.905Z,100215.09
2023-05-02T12:19:19.664Z,100210.38
2023-05-02T12:24:21.543Z,100206.72
2023-05-02T12:29:37.839Z,100204.56
2023-05-02T12:34:40.150Z,100204.03
2023-05-02T12:39:43.061Z,100214.66
2023-05-02T12:44:46.593Z,100206.16
2023-05-02T12:49:52.776Z,100213.72
2023-05-02T12:54:54.426Z,100221.88
2023-05-02T12:59:56.132Z,100221.28
2023-05-02T13:04:57.763Z,100222.44
2023-05-02T13:09:59.506Z,100220.22
2023-05-02T13:15:01.316Z,100225.56
2023-05-02T13:20:03.656Z,100218.59
2023-05-02T13:25:07.097Z,100215.38
2023-05-02T13:30:10.207Z,100219.00
2023-05-02T13:35:14.114Z,100228.13
2023-05-02T13:40:15.860Z,100221.66
2023-05-02T13:45:17.933Z,100232.78
2023-05-02T13:50:19.563Z,100228.56
2023-05-02T13:55:21.257Z,100234.44
2023-05-02T14:00:23.034Z,100234.16
2023-05-02T14:05:24.624Z,100238.31
2023-05-02T14:10:26.288Z,100232.88
2023-05-02T14:15:28.169Z,100242.84
2023-05-02T14:20:29.836Z,100235.47
2023-05-02T14:25:31.445Z,100231.94
2023-05-02T14:30:33.301Z,100236.97
2023-05-02T14:35:34.932Z,100228.81
2023-05-02T14:40:36.782Z,100248.78
2023-05-02T14:45:38.410Z,100250.78
2023-05-02T14:50:40.998Z,100277.28
2023-05-02T14:55:42.709Z,100293.03
2023-05-02T15:00:44.317Z,100297.22
2023-05-02T15:05:46.133Z,100297.69
2023-05-02T15:10:47.784Z,100315.03
2023-05-02T15:15:49.549Z,100315.78
2023-05-02T15:20:51.208Z,100313.06
2023-05-02T15:25:52.823Z,100319.00
2023-05-02T15:30:54.489Z,100339.59
2023-05-02T15:36:00.706Z,100344.72
2023-05-02T15:41:02.374Z,100356.22
2023-05-02T15:46:04.091Z,100348.41
2023-05-02T15:51:06.361Z,100361.94
2023-05-02T15:56:12.163Z,100373.31
2023-05-02T16:01:13.788Z,100372.16
2023-05-02T16:06:16.636Z,100365.94
2023-05-02T16:11:18.296Z,100379.47
2023-05-02T16:16:19.973Z,100385.13
2023-05-02T16:21:21.734Z,100397.63
2023-05-02T16:26:23.410Z,100392.28
2023-05-02T16:31:25.164Z,100406.38
2023-05-02T16:36:27.899Z,100408.81
2023-05-02T16:41:29.529Z,100420.50
2023-05-02T16:46:31.676Z,100423.19
2023-05-02T16:51:33.454Z,100425.13
2023-05-02T16:56:35.063Z,100428.06
2023-05-02T17:01:36.821Z,100432.47
2023-05-02T17:06:39.192Z,100437.84
2023-05-02T17:11:41.388Z,100447.44
2023-05-02T17:16:43.101Z,100445.13
2023-05-02T17:21:44.768Z,100457.13
2023-05-02T17:26:46.580Z,100459.53
2023-05-02T17:31:48.273Z,100470.13
2023-05-02T17:36:49.883Z,100479.94
2023-05-02T17:41:51.491Z,100494.63
2023-05-02T17:46:53.522Z,100499.69
2023-05-02T17:51:55.286Z,100492.94
2023-05-02T17:56:57.357Z,100508.50
2023-05-02T18:01:58.997Z,100508.13
2023-05-02T18:07:02.511Z,100524.34
2023-05-02T18:12:06.214Z,100531.41
2023-05-02T18:17:09.885Z,100537.69
2023-05-02T18:22:11.882Z,100535.47
2023-05-02T18:27:13.562Z,100536.66
2023-05-02T18:32:15.602Z,100552.84
2023-05-02T18:37:17.206Z,100554.53
2023-05-02T18:42:18.840Z,100562.25
2023-05-02T18:47:21.507Z,100578.78
2023-05-02T18:52:23.135Z,100574.06
2023-05-02T18:57:25.362Z,100578.25
2023-05-02T19:02:27.411Z,100586.50
2023-05-02T19:07:29.101Z,100579.91
2023-05-02T19:12:31.038Z,100582.78
2023-05-02T19:17:32.702Z,100583.56
2023-05-02T19:22:34.776Z,100601.69
2023-05-02T19:27:36.592Z,100592.09
2023-05-02T19:32:38.276Z,100607.22
2023-05-02T19:37:39.878Z,100607.03
2023-05-02T19:42:41.525Z,100611.16
2023-05-02T19:47:45.452Z,100614.00
2023-05-02T19:52:47.247Z,100614.91
2023-05-02T19:57:49.030Z,100626.22
2023-05-02T20:02:51.586Z,100639.78
2023-05-02T20:07:53.409Z,100644.06
2023-05-02T20:12:55.019Z,100642.84
2023-05-02T20:17:59.307Z,100650.59
2023-05-02T20:23:00.962Z,100656.53
2023-05-02T20:28:02.575Z,100668.53
2023-05-02T20:33:14.009Z,100668.22
2023-05-02T20:38:17.808Z,100677.06
2023-05-02T20:43:19.944Z,100673.69
2023-05-02T20:48:21.658Z,100673.91
2023-05-02T20:53:24.001Z,100674.22
2023-05-02T20:58:26.311Z,100675.22
2023-05-02T21:03:28.116Z,100681.53
2023-05-02T21:08:29.910Z,100682.31
2023-05-02T21:13:31.537Z,100687.91
2023-05-02T21:18:33.183Z,100679.13
2023-05-02T21:23:35.004Z,100691.13
2023-05-02T21:28:38.568Z,100692.16
2023-05-02T21:33:41.573Z,100695.44
2023-05-02T21:38:43.188Z,100702.66
2023-05-02T21:43:45.202Z,100692.81
2023-05-02T21:48:46.875Z,100699.50
2023-05-02T21:53:48.623Z,100699.91
2023-05-02T21:58:51.383Z,100705.19
2023-05-02T22:03:53.049Z,100697.91
2023-05-02T22:08:54.689Z,100705.72
2023-05-02T22:13:56.428Z,100701.84
2023-05-02T22:18:58.157Z,100707.19
2023-05-02T22:23:59.782Z,100711.72
2023-05-02T22:29:01.400Z,100709.66
2023-05-02T22:34:03.018Z,100709.91
2023-05-02T22:39:08.982Z,100714.69
2023-05-02T22:44:11.103Z,100707.03
2023-05-02T22:49:12.728Z,100698.97
2023-05-02T22:54:15.226Z,100710.13
2023-05-02T22:59:17.665Z,100713.81
2023-05-02T23:04:19.357Z,100720.81
2023-05-02T23:09:21.216Z,100708.66
2023-05-02T23:14:23.480Z,100716.63
2023-05-02T23:19:25.934Z,100715.50
2023-05-02T23:24:27.844Z,100714.16
2023-05-02T23:29:29.490Z,100715.50
2023-05-02T23:34:31.473Z,100731.25
2023-05-02T23:39:33.532Z,100731.91
2023-05-02T23:44:35.170Z,100738.78
2023-05-02T23:49:37.232Z,100726.38
2023-05-02T23:54:38.853Z,100727.47
2023-05-02T23:59:40.502Z,100734.50
